createdAt,value
2023-05-19T00:01:07.000Z,65.3
2023-05-19T00:02:23.000Z,65.4
2023-05-19T00:03:39.000Z,65.5
2023-05-19T00:04:54.000Z,65.5
2023-05-19T00:06:10.000Z,65.5
2023-05-19T00:07:27.000Z,65.6
2023-05-19T00:08:43.000Z,65.6
2023-05-19T00:09:59.000Z,65.5
2023-05-19T00:11:15.000Z,65.5
2023-05-19T00:12:31.000Z,65.5
2023-05-19T00:13:48.000Z,65.7
2023-05-19T00:15:04.000Z,65.9
2023-05-19T00:16:20.000Z,66.1
2023-05-19T00:17:36.000Z,66.2
2023-05-19T00:18:52.000Z,66.4
2023-05-19T00:20:09.000Z,66.5
2023-05-19T00:21:24.000Z,66.5
2023-05-19T00:22:40.000Z,66.6
2023-05-19T00:23:56.000Z,66.7
2023-05-19T00:25:12.000Z,66.6
2023-05-19T00:26:29.000Z,66.6
2023-05-19T00:27:45.000Z,66.9
2023-05-19T00:29:01.000Z,67
2023-05-19T00:30:17.000Z,67.2
2023-05-19T00:31:33.000Z,67.4
2023-05-19T00:32:50.000Z,67.7
2023-05-19T00:34:06.000Z,67.9
2023-05-19T00:35:22.000Z,67.9
2023-05-19T00:36:38.000Z,67.8
2023-05-19T00:37:53.000Z,67.8
2023-05-19T00:39:10.000Z,67.9
2023-05-19T00:40:26.000Z,67.8
2023-05-19T00:41:42.000Z,67.8
2023-05-19T00:42:58.000Z,67.7
2023-05-19T00:44:14.000Z,67.6
2023-05-19T00:45:30.981Z,67.4
2023-05-19T00:46:47.000Z,67.5
2023-05-19T00:48:03.000Z,67.5
2023-05-19T00:49:19.000Z,67.5
2023-05-19T00:50:35.000Z,67.5
2023-05-19T00:51:52.000Z,67.6
2023-05-19T00:53:08.000Z,67.6
2023-05-19T00:54:23.000Z,67.8
2023-05-19T00:55:39.000Z,67.9
2023-05-19T00:56:55.000Z,67.9
2023-05-19T00:58:12.000Z,67.9
2023-05-19T00:59:28.000Z,67.9
2023-05-19T01:00:44.000Z,67.8
2023-05-19T01:01:59.000Z,67.8
2023-05-19T01:03:15.000Z,67.9
2023-05-19T01:04:32.000Z,67.9
2023-05-19T01:05:48.000Z,68
2023-05-19T01:07:04.000Z,68.1
2023-05-19T01:08:20.000Z,68.2
2023-05-19T01:09:36.000Z,68.1
2023-05-19T01:10:52.929Z,68.1
2023-05-19T01:12:09.000Z,68.1
2023-05-19T01:13:25.000Z,68
2023-05-19T01:14:41.000Z,67.9
2023-05-19T01:15:57.000Z,67.9
2023-05-19T01:17:13.000Z,67.8
2023-05-19T01:18:29.000Z,67.8
2023-05-19T01:19:45.000Z,67.9
2023-05-19T01:21:01.000Z,68.2
2023-05-19T01:22:17.000Z,68.3
2023-05-19T01:23:33.916Z,68.5
2023-05-19T01:24:50.000Z,68.4
2023-05-19T01:26:06.000Z,68.3
2023-05-19T01:27:22.000Z,68.3
2023-05-19T01:28:38.000Z,68.5
2023-05-19T01:29:54.000Z,68.6
2023-05-19T01:31:11.000Z,68.7
2023-05-19T01:32:27.000Z,69
2023-05-19T01:33:43.000Z,68.9
2023-05-19T01:34:58.000Z,69
2023-05-19T01:36:14.890Z,68.9
2023-05-19T01:37:31.000Z,68.8
2023-05-19T01:38:47.000Z,69.1
2023-05-19T01:40:03.000Z,69
2023-05-19T01:41:19.000Z,69.2
2023-05-19T01:42:35.000Z,69.3
2023-05-19T01:43:52.000Z,69.3
2023-05-19T01:45:08.000Z,69.3
2023-05-19T01:46:24.000Z,69.3
2023-05-19T01:47:40.000Z,69.5
2023-05-19T01:48:56.000Z,69.8
2023-05-19T01:50:13.000Z,69.8
2023-05-19T01:51:28.000Z,70
2023-05-19T01:52:44.000Z,70.2
2023-05-19T01:54:00.000Z,70.6
2023-05-19T01:55:16.000Z,70.6
2023-05-19T01:56:33.000Z,70.8
2023-05-19T01:57:49.000Z,70.8
2023-05-19T01:59:05.000Z,70.6
2023-05-19T02:00:21.000Z,70.4
2023-05-19T02:01:37.812Z,70.2
2023-05-19T02:02:54.000Z,70.2
2023-05-19T02:04:10.000Z,70.2
2023-05-19T02:05:26.000Z,70.3
2023-05-19T02:06:42.000Z,70.2
2023-05-19T02:07:57.000Z,70.5
2023-05-19T02:09:14.000Z,70.4
2023-05-19T02:10:30.000Z,70.5
2023-05-19T02:11:46.000Z,70.5
2023-05-19T02:13:02.000Z,70.5
2023-05-19T02:14:18.000Z,70.6
2023-05-19T02:15:35.000Z,70.9
2023-05-19T02:16:51.000Z,71.1
2023-05-19T02:18:07.000Z,71.2
2023-05-19T02:19:23.000Z,71.2
2023-05-19T02:20:39.000Z,71.7
2023-05-19T02:21:56.000Z,71.8
2023-05-19T02:23:12.000Z,72
2023-05-19T02:24:27.000Z,72
2023-05-19T02:25:43.000Z,72.1
2023-05-19T02:26:59.000Z,72.3
2023-05-19T02:28:16.000Z,72.4
2023-05-19T02:29:32.000Z,72.5
2023-05-19T02:30:48.000Z,72.8
2023-05-19T02:32:04.000Z,72.7
2023-05-19T02:33:20.000Z,72.7
2023-05-19T02:34:37.000Z,73
2023-05-19T02:35:53.000Z,73
2023-05-19T02:37:09.000Z,73
2023-05-19T02:38:25.000Z,73.2
2023-05-19T02:39:41.709Z,73.2
2023-05-19T02:40:56.000Z,73.3
2023-05-19T02:42:13.000Z,73.3
2023-05-19T02:43:29.000Z,73.5
2023-05-19T02:44:45.000Z,73.5
2023-05-19T02:46:01.000Z,73.7
2023-05-19T02:47:17.000Z,74
2023-05-19T02:48:34.000Z,74.1
2023-05-19T02:49:50.000Z,74.1
2023-05-19T02:51:06.000Z,74.1
2023-05-19T02:52:22.000Z,74.3
2023-05-19T02:53:38.000Z,74.2
2023-05-19T02:54:55.000Z,74
2023-05-19T02:56:11.000Z,74
2023-05-19T02:57:26.000Z,74
2023-05-19T02:58:42.000Z,74.1
2023-05-19T02:59:58.000Z,74.2
2023-05-19T03:01:15.000Z,74.3
2023-05-19T03:02:31.000Z,74.3
2023-05-19T03:03:47.000Z,74.3
2023-05-19T03:05:03.000Z,74.4
2023-05-19T03:06:19.000Z,74.4
2023-05-19T03:07:36.000Z,74.3
2023-05-19T03:08:52.000Z,74.2
2023-05-19T03:10:08.000Z,74.4
2023-05-19T03:11:24.000Z,74.7
2023-05-19T03:12:40.000Z,74.9
2023-05-19T03:13:56.000Z,75.2
2023-05-19T03:15:12.000Z,75.2
2023-05-19T03:16:28.000Z,75.2
2023-05-19T03:17:44.592Z,75.1
2023-05-19T03:19:00.000Z,75.1
2023-05-19T03:20:17.000Z,75
2023-05-19T03:21:33.000Z,75
2023-05-19T03:22:49.000Z,75.2
2023-05-19T03:24:05.000Z,75.2
2023-05-19T03:25:21.000Z,75.2
2023-05-19T03:26:38.000Z,75.5
2023-05-19T03:27:54.000Z,75.5
2023-05-19T03:29:10.000Z,75.3
2023-05-19T03:30:25.000Z,75.3
2023-05-19T03:31:41.000Z,75.5
2023-05-19T03:32:57.000Z,75.7
2023-05-19T03:34:14.000Z,75.8
2023-05-19T03:35:30.000Z,76
2023-05-19T03:36:46.000Z,76.1
2023-05-19T03:38:02.000Z,75.8
2023-05-19T03:39:18.000Z,75.7
2023-05-19T03:40:35.000Z,75.8
2023-05-19T03:41:51.000Z,76
2023-05-19T03:43:07.000Z,75.9
2023-05-19T03:44:23.000Z,75.9
2023-05-19T03:45:39.000Z,75.5
2023-05-19T03:46:55.000Z,75.6
2023-05-19T03:48:11.000Z,75.5
2023-05-19T03:49:27.000Z,75.3
2023-05-19T03:50:43.000Z,75.2
2023-05-19T03:51:59.000Z,75
2023-05-19T03:53:16.000Z,74.6
2023-05-19T03:54:32.000Z,74.3
2023-05-19T03:55:48.000Z,74.3
2023-05-19T03:57:04.000Z,74
2023-05-19T03:58:20.000Z,74.3
2023-05-19T03:59:37.000Z,74.5
2023-05-19T04:00:53.000Z,74.5
2023-05-19T04:02:09.000Z,74.3
2023-05-19T04:03:24.000Z,74.3
2023-05-19T04:04:40.000Z,74.2
2023-05-19T04:05:57.000Z,74
2023-05-19T04:07:13.000Z,73.7
2023-05-19T04:08:29.000Z,73.5
2023-05-19T04:09:45.000Z,73.6
2023-05-19T04:11:01.000Z,73.6
2023-05-19T04:12:18.000Z,73.6
2023-05-19T04:13:34.000Z,73.5
2023-05-19T04:14:50.000Z,73.3
2023-05-19T04:16:06.000Z,73.2
2023-05-19T04:17:22.000Z,73.3
2023-05-19T04:18:38.000Z,73.3
2023-05-19T04:19:54.000Z,73.2
2023-05-19T04:21:10.000Z,73.2
2023-05-19T04:22:26.000Z,73.1
2023-05-19T04:23:42.000Z,72.9
2023-05-19T04:24:58.000Z,72.9
2023-05-19T04:26:15.000Z,72.7
2023-05-19T04:27:31.000Z,72.8
2023-05-19T04:28:47.000Z,72.9
2023-05-19T04:30:03.000Z,72.7
2023-05-19T04:31:19.000Z,72.5
2023-05-19T04:32:36.000Z,72.5
2023-05-19T04:33:52.000Z,72.5
2023-05-19T04:35:08.000Z,72.5
2023-05-19T04:36:23.000Z,72.5
2023-05-19T04:37:39.000Z,72.4
2023-05-19T04:38:56.000Z,72.5
2023-05-19T04:40:12.000Z,72.3
2023-05-19T04:41:28.000Z,72.1
2023-05-19T04:42:44.000Z,71.9
2023-05-19T04:44:00.000Z,71.6
2023-05-19T04:45:17.000Z,71.5
2023-05-19T04:46:33.226Z,71.3
2023-05-19T04:47:49.000Z,71.2
2023-05-19T04:49:05.000Z,71
2023-05-19T04:50:21.000Z,70.4
2023-05-19T04:51:38.000Z,70
2023-05-19T04:52:53.000Z,69.8
2023-05-19T04:54:09.000Z,69.6
2023-05-19T04:55:25.000Z,69.2
2023-05-19T04:56:41.000Z,69.1
2023-05-19T04:57:58.000Z,68.3
2023-05-19T04:59:14.000Z,68.3
2023-05-19T05:00:30.000Z,67.9
2023-05-19T05:01:46.000Z,67.4
2023-05-19T05:03:02.000Z,67.7
2023-05-19T05:04:19.000Z,67.5
2023-05-19T05:05:35.000Z,67.3
2023-05-19T05:06:51.000Z,66.7
2023-05-19T05:08:07.000Z,66.2
2023-05-19T05:09:22.000Z,65.5
2023-05-19T05:10:38.000Z,65.2
2023-05-19T05:11:55.000Z,65
2023-05-19T05:13:11.000Z,64.5
2023-05-19T05:14:27.000Z,64.1
2023-05-19T05:15:43.000Z,63.9
2023-05-19T05:16:58.000Z,64
2023-05-19T05:18:15.000Z,63.7
2023-05-19T05:19:31.000Z,63.2
2023-05-19T05:20:47.000Z,63
2023-05-19T05:22:03.704Z,62.5
2023-05-19T05:23:19.000Z,62.1
2023-05-19T05:24:36.084Z,61.8
2023-05-19T05:25:52.000Z,61.4
2023-05-19T05:27:08.000Z,61.2
2023-05-19T05:28:24.000Z,60.9
2023-05-19T05:29:40.000Z,60.3
2023-05-19T05:30:57.000Z,59.9
2023-05-19T05:32:13.000Z,59.3
2023-05-19T05:33:28.000Z,58.4
2023-05-19T05:34:44.000Z,57.9
2023-05-19T05:36:00.000Z,57.1
2023-05-19T05:37:17.000Z,55.9
2023-05-19T05:38:33.000Z,54.8
2023-05-19T05:39:49.000Z,54.2
2023-05-19T05:41:05.000Z,52.8
2023-05-19T05:42:21.000Z,51.6
2023-05-19T05:43:38.000Z,50.7
2023-05-19T05:44:54.000Z,49.4
2023-05-19T05:46:10.000Z,48.1
2023-05-19T05:47:26.000Z,47.4
2023-05-19T05:48:42.000Z,46.5
2023-05-19T05:49:57.990Z,45.6
2023-05-19T05:51:14.000Z,45.1
2023-05-19T05:52:30.000Z,44.8
2023-05-19T05:53:46.000Z,44.9
2023-05-19T05:55:02.000Z,44.9
2023-05-19T05:56:19.000Z,44.8
2023-05-19T05:57:35.000Z,44.3
2023-05-19T05:58:51.000Z,43.8
2023-05-19T06:00:07.000Z,43.8
2023-05-19T06:01:23.000Z,43.6
2023-05-19T06:02:39.921Z,42.9
2023-05-19T06:03:56.000Z,41.9
2023-05-19T06:05:12.000Z,42
2023-05-19T06:06:27.000Z,41.6
2023-05-19T06:07:43.000Z,42
2023-05-19T06:08:59.000Z,42.9
2023-05-19T06:10:16.000Z,44.1
2023-05-19T06:11:32.000Z,45.9
2023-05-19T06:12:48.000Z,47
2023-05-19T06:14:04.000Z,45.4
2023-05-19T06:15:20.000Z,43.5
2023-05-19T06:16:37.000Z,43.1
2023-05-19T06:17:53.000Z,43.1
2023-05-19T06:19:09.000Z,42.6
2023-05-19T06:20:25.000Z,42.3
2023-05-19T06:21:41.000Z,41.8
2023-05-19T06:22:57.000Z,40.8
2023-05-19T06:24:13.000Z,40.4
2023-05-19T06:25:29.000Z,40.1
2023-05-19T06:26:45.000Z,40
2023-05-19T06:28:01.828Z,39.6
2023-05-19T06:29:18.000Z,39.3
2023-05-19T06:30:34.000Z,39.5
2023-05-19T06:31:50.000Z,40.1
2023-05-19T06:33:06.000Z,41.3
2023-05-19T06:34:22.000Z,41.4
2023-05-19T06:35:39.000Z,40.9
2023-05-19T06:36:55.000Z,40.7
2023-05-19T06:38:11.000Z,39.7
2023-05-19T06:39:26.000Z,40.4
2023-05-19T06:40:42.794Z,39.4
2023-05-19T06:41:59.000Z,39
2023-05-19T06:43:15.000Z,38.3
2023-05-19T06:44:31.000Z,37.1
2023-05-19T06:45:47.000Z,36.7
2023-05-19T06:47:03.000Z,37
2023-05-19T06:48:20.000Z,37.2
2023-05-19T06:49:36.000Z,37.5
2023-05-19T06:50:52.000Z,36.8
2023-05-19T06:52:08.000Z,37.2
2023-05-19T06:53:24.000Z,36.9
2023-05-19T06:54:41.000Z,36.5
2023-05-19T06:55:56.000Z,35.9
2023-05-19T06:57:12.000Z,35.7
2023-05-19T06:58:28.000Z,34.5
2023-05-19T06:59:44.000Z,34.6
2023-05-19T07:01:01.000Z,35
2023-05-19T07:02:17.000Z,35.4
2023-05-19T07:03:33.000Z,35.1
2023-05-19T07:04:49.000Z,34.1
2023-05-19T07:06:05.000Z,35
2023-05-19T07:07:21.000Z,34.5
2023-05-19T07:08:38.000Z,35.1
2023-05-19T07:09:54.308Z,35.5
2023-05-19T07:11:10.000Z,35.8
2023-05-19T07:12:25.719Z,36.7
2023-05-19T07:13:41.000Z,37.1
2023-05-19T07:14:58.000Z,37.2
2023-05-19T07:16:14.000Z,36.6
2023-05-19T07:17:30.000Z,35.8
2023-05-19T07:18:46.690Z,34.7
2023-05-19T07:20:02.000Z,33.8
2023-05-19T07:21:19.000Z,33.7
2023-05-19T07:22:35.000Z,34.2
2023-05-19T07:23:51.000Z,34.9
2023-05-19T07:25:07.000Z,34.5
2023-05-19T07:26:23.000Z,34.8
2023-05-19T07:27:40.000Z,34
2023-05-19T07:28:55.000Z,33.2
2023-05-19T07:30:11.000Z,32.3
2023-05-19T07:31:27.678Z,32.2
2023-05-19T07:32:43.000Z,32.4
2023-05-19T07:34:00.000Z,32.8
2023-05-19T07:35:16.000Z,32.8
2023-05-19T07:36:32.000Z,33.3
2023-05-19T07:37:48.000Z,33.5
2023-05-19T07:39:04.000Z,33.6
2023-05-19T07:40:21.000Z,33.7
2023-05-19T07:41:37.000Z,33
2023-05-19T07:42:53.000Z,32.5
2023-05-19T07:44:09.000Z,31.6
2023-05-19T07:45:24.000Z,32.4
2023-05-19T07:46:41.000Z,32.4
2023-05-19T07:47:57.000Z,32.7
2023-05-19T07:49:13.000Z,33.1
2023-05-19T07:50:29.000Z,33.4
2023-05-19T07:51:45.000Z,32.3
2023-05-19T07:53:02.000Z,31.6
2023-05-19T07:54:18.000Z,31
2023-05-19T07:55:34.000Z,30.6
2023-05-19T07:56:50.610Z,30.4
2023-05-19T07:58:06.000Z,29.8
2023-05-19T07:59:23.000Z,29.9
2023-05-19T08:00:39.000Z,29.9
2023-05-19T08:01:54.000Z,29.9
2023-05-19T08:03:10.000Z,30.4
2023-05-19T08:04:26.000Z,30.5
2023-05-19T08:05:43.000Z,31.8
2023-05-19T08:06:59.000Z,31.8
2023-05-19T08:08:15.000Z,31.9
2023-05-19T08:09:31.596Z,31.9
2023-05-19T08:10:47.000Z,30.9
2023-05-19T08:12:04.000Z,31.1
2023-05-19T08:13:20.000Z,30.7
2023-05-19T08:14:36.000Z,30.6
2023-05-19T08:15:52.000Z,30.6
2023-05-19T08:17:08.000Z,31.1
2023-05-19T08:18:24.000Z,31.1
2023-05-19T08:19:40.000Z,31.3
2023-05-19T08:20:56.000Z,31.9
2023-05-19T08:22:12.000Z,32.8
2023-05-19T08:23:28.000Z,32.4
2023-05-19T08:24:45.000Z,33.7
2023-05-19T08:26:01.000Z,34.4
2023-05-19T08:27:17.000Z,34.4
2023-05-19T08:28:33.000Z,33.8
2023-05-19T08:29:49.000Z,33.8
2023-05-19T08:31:06.000Z,33.5
2023-05-19T08:32:22.000Z,33.6
2023-05-19T08:33:38.000Z,33.8
2023-05-19T08:34:53.536Z,33.8
2023-05-19T08:36:09.000Z,34.3
2023-05-19T08:37:25.000Z,35.1
2023-05-19T08:38:42.000Z,34.7
2023-05-19T08:39:58.000Z,34.5
2023-05-19T08:41:14.000Z,34.3
2023-05-19T08:42:30.000Z,33.7
2023-05-19T08:43:46.000Z,33.1
2023-05-19T08:45:03.000Z,34.4
2023-05-19T08:46:19.000Z,35.5
2023-05-19T08:47:35.000Z,36.3
2023-05-19T08:48:51.000Z,35.6
2023-05-19T08:50:07.000Z,35.5
2023-05-19T08:51:23.000Z,35.3
2023-05-19T08:52:39.000Z,35.6
2023-05-19T08:53:55.000Z,35.3
2023-05-19T08:56:27.000Z,36
2023-05-19T08:57:44.000Z,35.5
2023-05-19T08:59:00.000Z,36
2023-05-19T09:00:16.415Z,36.3
2023-05-19T09:01:32.000Z,37.8
2023-05-19T09:02:48.000Z,38.4
2023-05-19T09:04:05.000Z,38.8
2023-05-19T09:05:21.000Z,39.2
2023-05-19T09:06:37.000Z,38.8
2023-05-19T09:07:52.000Z,37.6
2023-05-19T09:09:08.000Z,37
2023-05-19T09:10:25.000Z,36.6
2023-05-19T09:11:41.000Z,36.4
2023-05-19T09:12:57.000Z,36.1
2023-05-19T09:14:13.000Z,36.3
2023-05-19T09:15:29.000Z,36.4
2023-05-19T09:16:46.000Z,35.6
2023-05-19T09:18:02.000Z,35.4
2023-05-19T09:19:18.000Z,35
2023-05-19T09:20:34.000Z,35.3
2023-05-19T09:21:50.000Z,36
2023-05-19T09:23:07.000Z,36
2023-05-19T09:24:22.000Z,36.2
2023-05-19T09:25:38.000Z,34.8
2023-05-19T09:26:54.000Z,34.9
2023-05-19T09:28:10.715Z,36.6
2023-05-19T09:29:26.000Z,37.8
2023-05-19T09:30:43.000Z,36.8
2023-05-19T09:31:58.000Z,37.1
2023-05-19T09:33:14.000Z,37.1
2023-05-19T09:34:30.000Z,36.8
2023-05-19T09:35:46.000Z,37.4
2023-05-19T09:37:03.000Z,38.4
2023-05-19T09:38:19.281Z,37.8
2023-05-19T09:39:35.000Z,38.3
2023-05-19T09:40:51.000Z,38.5
2023-05-19T09:42:07.000Z,37.6
2023-05-19T09:43:24.000Z,36.8
2023-05-19T09:44:40.000Z,36.4
2023-05-19T09:45:56.000Z,36.5
2023-05-19T09:47:12.000Z,36.3
2023-05-19T09:48:27.000Z,35.8
2023-05-19T09:49:44.000Z,36.5
2023-05-19T09:51:00.000Z,38.1
2023-05-19T09:52:16.000Z,38.5
2023-05-19T09:53:32.000Z,37.5
2023-05-19T09:54:48.000Z,36.4
2023-05-19T09:56:05.000Z,35.9
2023-05-19T09:57:21.000Z,35.2
2023-05-19T09:58:37.000Z,35.1
2023-05-19T09:59:53.000Z,35.5
2023-05-19T10:01:09.000Z,35.7
2023-05-19T10:02:26.000Z,36.6
2023-05-19T10:03:42.000Z,36.2
2023-05-19T10:04:57.000Z,36
2023-05-19T10:06:13.000Z,36
2023-05-19T10:07:29.000Z,36.4
2023-05-19T10:08:46.000Z,36.5
2023-05-19T10:10:02.000Z,37.2
2023-05-19T10:11:18.000Z,37.3
2023-05-19T10:12:34.000Z,37.6
2023-05-19T10:15:07.000Z,36.8
2023-05-19T10:16:23.000Z,36.5
2023-05-19T10:17:39.000Z,35.8
2023-05-19T10:18:55.000Z,36.5
2023-05-19T10:20:11.000Z,36.6
2023-05-19T10:21:26.000Z,36.7
2023-05-19T10:22:43.000Z,37.3
2023-05-19T10:23:59.000Z,38
2023-05-19T10:25:15.000Z,38
2023-05-19T10:26:31.000Z,37.1
2023-05-19T10:27:47.000Z,36.9
2023-05-19T10:29:04.065Z,37
2023-05-19T10:30:20.000Z,36.4
2023-05-19T10:31:36.000Z,36.9
2023-05-19T10:32:52.000Z,37
2023-05-19T10:34:08.000Z,37.7
2023-05-19T10:35:25.000Z,37.2
2023-05-19T10:36:41.000Z,36.8
2023-05-19T10:37:56.000Z,36.8
2023-05-19T10:39:12.000Z,36.9
2023-05-19T10:40:28.000Z,37.1
2023-05-19T10:41:45.000Z,37.9
2023-05-19T10:43:01.000Z,38.3
2023-05-19T10:44:17.000Z,37.5
2023-05-19T10:45:33.000Z,37
2023-05-19T10:46:49.000Z,37
2023-05-19T10:48:06.000Z,37.4
2023-05-19T10:49:22.000Z,37.1
2023-05-19T10:50:38.000Z,36.8
2023-05-19T10:51:54.000Z,36.4
2023-05-19T10:53:10.000Z,36.4
2023-05-19T10:54:26.000Z,36
2023-05-19T10:55:42.000Z,36.5
2023-05-19T10:56:58.000Z,36.8
2023-05-19T10:58:14.000Z,36.7
2023-05-19T10:59:30.000Z,36.8
2023-05-19T11:00:47.000Z,36.5
2023-05-19T11:02:03.000Z,36.4
2023-05-19T11:03:19.000Z,36.3
2023-05-19T11:04:35.000Z,36.9
2023-05-19T11:05:51.000Z,37
2023-05-19T11:08:24.000Z,36.3
2023-05-19T11:09:40.000Z,36
2023-05-19T11:10:55.000Z,35.6
2023-05-19T11:12:11.000Z,36
2023-05-19T11:13:27.000Z,36.1
2023-05-19T11:14:44.000Z,36
2023-05-19T11:16:00.000Z,35.4
2023-05-19T11:17:16.000Z,36.6
2023-05-19T11:18:32.000Z,37.3
2023-05-19T11:19:48.000Z,37.5
2023-05-19T11:21:05.000Z,37.1
2023-05-19T11:22:21.000Z,37.4
2023-05-19T11:23:37.000Z,37.8
2023-05-19T11:24:53.000Z,38
2023-05-19T11:26:09.000Z,38.3
2023-05-19T11:27:25.000Z,38.3
2023-05-19T11:28:41.000Z,38.9
2023-05-19T11:29:57.000Z,38.8
2023-05-19T11:31:13.000Z,39
2023-05-19T11:32:29.000Z,39.2
2023-05-19T11:33:46.000Z,39.1
2023-05-19T11:35:02.000Z,38.8
2023-05-19T11:36:18.000Z,39
2023-05-19T11:37:34.000Z,38.2
2023-05-19T11:38:50.000Z,37.9
2023-05-19T11:40:07.000Z,37.9
2023-05-19T11:41:23.000Z,38
2023-05-19T11:42:39.000Z,37.8
2023-05-19T11:43:54.000Z,37.2
2023-05-19T11:45:10.742Z,37.3
2023-05-19T11:46:27.000Z,37.5
2023-05-19T11:47:43.000Z,37.7
2023-05-19T11:48:59.000Z,37.7
2023-05-19T11:50:15.000Z,37.7
2023-05-19T11:51:31.000Z,37.9
2023-05-19T11:52:47.000Z,38
2023-05-19T11:54:04.000Z,37.6
2023-05-19T11:55:20.000Z,37.2
2023-05-19T11:56:36.000Z,37.1
2023-05-19T11:57:52.000Z,37.1
2023-05-19T11:59:08.000Z,37.2
2023-05-19T12:00:24.000Z,37.6
2023-05-19T12:01:40.000Z,38.6
2023-05-19T12:02:56.000Z,38.9
2023-05-19T12:04:12.000Z,38.4
2023-05-19T12:05:28.000Z,38.5
2023-05-19T12:06:45.000Z,38.8
2023-05-19T12:08:01.000Z,38.7
2023-05-19T12:09:17.000Z,38.6
2023-05-19T12:10:33.000Z,39
2023-05-19T12:11:49.000Z,39.6
2023-05-19T12:13:06.000Z,39.9
2023-05-19T12:14:22.000Z,40.3
2023-05-19T12:15:38.000Z,40.8
2023-05-19T12:16:53.000Z,40.7
2023-05-19T12:18:09.000Z,40.9
2023-05-19T12:19:26.000Z,40.7
2023-05-19T12:20:42.000Z,40
2023-05-19T12:21:58.000Z,40
2023-05-19T12:23:14.000Z,39.5
2023-05-19T12:24:30.000Z,40
2023-05-19T12:25:47.000Z,40.6
2023-05-19T12:27:03.000Z,40.7
2023-05-19T12:28:19.000Z,40.6
2023-05-19T12:29:35.000Z,40.1
2023-05-19T12:30:51.000Z,40
2023-05-19T12:32:07.931Z,39.6
2023-05-19T12:33:23.000Z,39.5
2023-05-19T12:34:39.000Z,39.1
2023-05-19T12:35:55.000Z,39.3
2023-05-19T12:37:11.000Z,39
2023-05-19T12:38:28.000Z,39.1
2023-05-19T12:39:44.000Z,38.8
2023-05-19T12:41:00.000Z,39.3
2023-05-19T12:42:16.000Z,39.6
2023-05-19T12:43:32.000Z,39.5
2023-05-19T12:44:48.000Z,39.2
2023-05-19T12:46:05.000Z,38.6
2023-05-19T12:47:21.000Z,39.6
2023-05-19T12:48:37.000Z,39.9
2023-05-19T12:49:52.000Z,39.8
2023-05-19T12:51:08.000Z,39.8
2023-05-19T12:52:25.000Z,39.3
2023-05-19T12:53:41.000Z,39.6
2023-05-19T12:54:57.000Z,39.8
2023-05-19T12:56:13.000Z,39.8
2023-05-19T12:57:29.000Z,39.4
2023-05-19T12:58:46.000Z,39.8
2023-05-19T13:00:02.000Z,40.1
2023-05-19T13:01:18.456Z,40.4
2023-05-19T13:02:34.000Z,40
2023-05-19T13:03:50.000Z,39.6
2023-05-19T13:05:07.000Z,39.3
2023-05-19T13:06:22.000Z,39.4
2023-05-19T13:07:38.000Z,39.3
2023-05-19T13:08:54.000Z,39.3
2023-05-19T13:10:10.000Z,39
2023-05-19T13:11:27.000Z,39.2
2023-05-19T13:12:43.000Z,39
2023-05-19T13:13:59.000Z,39
2023-05-19T13:15:15.000Z,38.8
2023-05-19T13:16:31.000Z,38.4
2023-05-19T13:17:48.000Z,38.4
2023-05-19T13:19:04.000Z,38.4
2023-05-19T13:20:20.000Z,38.9
2023-05-19T13:21:36.000Z,39.2
2023-05-19T13:22:51.000Z,39.4
2023-05-19T13:24:08.000Z,39.4
2023-05-19T13:25:24.000Z,39.1
2023-05-19T13:26:40.000Z,39
2023-05-19T13:27:56.000Z,38.7
2023-05-19T13:29:12.000Z,38.9
2023-05-19T13:30:29.000Z,39.1
2023-05-19T13:31:45.000Z,39.8
2023-05-19T13:33:01.000Z,40
2023-05-19T13:34:17.000Z,40.6
2023-05-19T13:35:33.000Z,40.5
2023-05-19T13:36:50.000Z,40
2023-05-19T13:38:06.000Z,40.3
2023-05-19T13:39:21.350Z,40.2
2023-05-19T13:40:37.000Z,39.9
2023-05-19T13:41:53.000Z,40.4
2023-05-19T13:43:10.000Z,40.4
2023-05-19T13:44:26.000Z,40.4
2023-05-19T13:45:42.000Z,40.5
2023-05-19T13:46:57.000Z,40.1
2023-05-19T13:48:13.000Z,39.9
2023-05-19T13:49:30.000Z,39.8
2023-05-19T13:50:46.000Z,40
2023-05-19T13:52:02.000Z,39.8
2023-05-19T13:53:18.000Z,39.5
2023-05-19T13:54:34.000Z,39.9
2023-05-19T13:55:50.000Z,39.1
2023-05-19T13:57:07.000Z,38.2
2023-05-19T13:58:23.000Z,38.3
2023-05-19T13:59:39.000Z,38.2
2023-05-19T14:00:55.000Z,37.8
2023-05-19T14:02:11.000Z,38.3
2023-05-19T14:03:27.000Z,38.9
2023-05-19T14:04:43.299Z,39.3
2023-05-19T14:05:59.000Z,39.9
2023-05-19T14:07:15.000Z,40.2
2023-05-19T14:08:31.000Z,40.1
2023-05-19T14:09:48.000Z,40
2023-05-19T14:11:04.000Z,39.5
2023-05-19T14:12:20.000Z,39.1
2023-05-19T14:13:36.000Z,39.3
2023-05-19T14:14:52.000Z,39.4
2023-05-19T14:16:09.000Z,39.5
2023-05-19T14:17:25.000Z,39.6
2023-05-19T14:18:41.000Z,40
2023-05-19T14:19:56.000Z,39.8
2023-05-19T14:21:12.000Z,39.8
2023-05-19T14:22:29.000Z,40.1
2023-05-19T14:23:45.000Z,40.1
2023-05-19T14:25:01.000Z,39.9
2023-05-19T14:26:17.000Z,39.3
2023-05-19T14:27:33.000Z,39.4
2023-05-19T14:28:50.000Z,39.6
2023-05-19T14:30:06.000Z,39.5
2023-05-19T14:31:22.000Z,39.6
2023-05-19T14:32:38.000Z,39
2023-05-19T14:33:54.000Z,38.6
2023-05-19T14:35:11.000Z,38.6
2023-05-19T14:36:26.000Z,38.1
2023-05-19T14:37:42.000Z,38.5
2023-05-19T14:38:58.000Z,38.1
2023-05-19T14:40:14.000Z,38.3
2023-05-19T14:41:31.000Z,38.6
2023-05-19T14:42:47.000Z,37.8
2023-05-19T14:44:03.000Z,38
2023-05-19T14:45:19.000Z,38.2
2023-05-19T14:46:35.000Z,38.5
2023-05-19T14:47:52.000Z,38.6
2023-05-19T14:49:08.000Z,38.9
2023-05-19T14:50:24.000Z,38.6
2023-05-19T14:51:40.000Z,38.8
2023-05-19T14:52:55.000Z,38.6
2023-05-19T14:54:12.000Z,38.7
2023-05-19T14:55:28.000Z,38.6
2023-05-19T14:56:44.000Z,38.6
2023-05-19T14:58:00.000Z,38.7
2023-05-19T14:59:16.000Z,38.4
2023-05-19T15:00:33.000Z,38.3
2023-05-19T15:01:49.131Z,38.9
2023-05-19T15:03:05.000Z,39
2023-05-19T15:04:21.000Z,39.2
2023-05-19T15:05:37.000Z,39.5
2023-05-19T15:06:54.000Z,39.8
2023-05-19T15:08:10.108Z,39.9
2023-05-19T15:09:25.000Z,39.7
2023-05-19T15:10:41.000Z,39.9
2023-05-19T15:11:57.000Z,39.2
2023-05-19T15:13:13.000Z,39
2023-05-19T15:14:30.000Z,38.9
2023-05-19T15:15:46.000Z,39.2
2023-05-19T15:17:02.000Z,39.2
2023-05-19T15:18:18.000Z,39.2
2023-05-19T15:19:34.000Z,38.9
2023-05-19T15:20:51.000Z,38.7
2023-05-19T15:22:07.000Z,38.5
2023-05-19T15:23:23.000Z,38.7
2023-05-19T15:24:39.000Z,38.8
2023-05-19T15:25:54.000Z,37.5
2023-05-19T15:27:11.000Z,37.4
2023-05-19T15:28:27.000Z,37.5
2023-05-19T15:29:43.000Z,37.8
2023-05-19T15:30:59.000Z,38.1
2023-05-19T15:32:15.000Z,38.2
2023-05-19T15:33:32.000Z,38.4
2023-05-19T15:34:48.000Z,38.2
2023-05-19T15:36:04.000Z,38.2
2023-05-19T15:37:20.000Z,37.9
2023-05-19T15:38:36.000Z,37.5
2023-05-19T15:39:53.000Z,37.4
2023-05-19T15:41:09.000Z,37.5
2023-05-19T15:42:24.000Z,37.3
2023-05-19T15:43:40.000Z,37.3
2023-05-19T15:44:56.000Z,37.3
2023-05-19T15:46:13.014Z,37.3
2023-05-19T15:47:29.000Z,37.5
2023-05-19T15:48:45.000Z,37.7
2023-05-19T15:50:01.000Z,37.8
2023-05-19T15:51:17.000Z,38
2023-05-19T15:52:34.000Z,38.1
2023-05-19T15:53:50.000Z,38.4
2023-05-19T15:55:06.380Z,38.4
2023-05-19T15:57:38.000Z,38.3
2023-05-19T15:58:54.000Z,38.2
2023-05-19T16:00:10.000Z,38.4
2023-05-19T16:01:26.000Z,38.5
2023-05-19T16:02:42.000Z,38.7
2023-05-19T16:03:58.000Z,38.4
2023-05-19T16:05:15.000Z,38.6
2023-05-19T16:06:31.000Z,38.5
2023-05-19T16:07:47.000Z,38.4
2023-05-19T16:09:03.000Z,38.3
2023-05-19T16:10:19.000Z,38.3
2023-05-19T16:11:36.000Z,38.1
2023-05-19T16:12:52.000Z,37.8
2023-05-19T16:14:08.000Z,37.8
2023-05-19T16:15:23.000Z,38
2023-05-19T16:16:39.000Z,37.6
2023-05-19T16:17:56.000Z,37.5
2023-05-19T16:19:12.000Z,37.7
2023-05-19T16:20:28.000Z,38
2023-05-19T16:21:44.000Z,38
2023-05-19T16:23:00.000Z,38
2023-05-19T16:24:16.980Z,38
2023-05-19T16:25:33.000Z,38.1
2023-05-19T16:26:49.000Z,38.2
2023-05-19T16:28:05.000Z,37.9
2023-05-19T16:29:21.000Z,38.2
2023-05-19T16:30:37.000Z,38.5
2023-05-19T16:31:53.000Z,38.2
2023-05-19T16:33:09.000Z,38.5
2023-05-19T16:34:25.000Z,38.5
2023-05-19T16:35:41.000Z,38.4
2023-05-19T16:36:57.000Z,38.6
2023-05-19T16:38:14.000Z,38.6
2023-05-19T16:39:30.000Z,38.8
2023-05-19T16:40:46.000Z,38.4
2023-05-19T16:42:02.000Z,38.4
2023-05-19T16:43:18.000Z,38.5
2023-05-19T16:44:35.000Z,38.8
2023-05-19T16:45:51.000Z,39
2023-05-19T16:47:07.000Z,39
2023-05-19T16:48:23.000Z,39.3
2023-05-19T16:49:39.000Z,39.3
2023-05-19T16:50:55.000Z,39.5
2023-05-19T16:52:11.000Z,39.7
2023-05-19T16:53:27.000Z,39.5
2023-05-19T16:54:43.000Z,39.7
2023-05-19T16:55:59.000Z,39.6
2023-05-19T16:57:16.000Z,39.6
2023-05-19T16:58:32.000Z,39.7
2023-05-19T16:59:48.000Z,39.8
2023-05-19T17:01:04.000Z,39.7
2023-05-19T17:02:20.854Z,39.5
2023-05-19T17:03:37.000Z,39.7
2023-05-19T17:04:53.000Z,40
2023-05-19T17:06:09.000Z,40.1